Página principal
Imagens de satélite Previsões 15 diasClimaMeteorologia maritima Ciclones Descargas eléctricas AeroportosFAQ Notícias Sobre
Tempo : Europa África América do Norte América do Sul Ásia Austrália-Oceania Outros
Línguas Contacto

Cambridge, Inglaterra

latitude: 52-12N, longitude: 000-11E, altura: 15 m


METAR: EGSC 021120Z VRB03KT 9999 FEW028 19/12 Q1024
short-TAF: EGSC 021100Z 0212/0221 03005KT 9999 FEW015 SCT030
long-TAF: em falta

Hora: 12:33 (11:33 UTC)

Observação actual do tempo

O boletim foi feito há 13 minutos, às 11:20 UTC  
Vento 03 kt com direcção variável
Temperatura 19°C
Humidade 64%
Pressão 1024 hPa
Visibilidade 10 km ou mais
Poucas nuvens a uma altura de 2800 ft

Mudar unidades

Previsão

O boletim foi feito há 18 minutos, às 11:15 UTC  
Previsão válida de 02 às 12 UTC a 02 às 21 UTC
Vento 05 kt de nor-nordeste
Visibilidade 10 km ou mais
Poucas nuvens a uma altura de 1500 ft
Nuvens dispersas a uma altura de 3000 ft
As informações contidas neste sítio estão sujeitas a uma declaração de exoneração de responsabilidade
Tempo : Europa África América do Norte América do Sul Ásia Austrália-Oceania Outros
Imagens de satélite Previsões 15 diasClimaMeteorologia maritima Ciclones Descargas eléctricas AeroportosFAQ Línguas Contacto Notícias Sobre